Time;durP1;ratioP1;P1;durP2;ratioP2;P2;SDS_P1;SDS_P2;PMS_P1;PMS_P2;Temp;Humidity;BMP_temperature;BMP_pressure;BME280_temperature;BME280_humidity;BME280_pressure;Samples;Min_cycle;Max_cycle;Signal;HPM_P1;HPM_P2
2022/02/12 09:27:16;;;;;;;24.73;9.50;;;;;;;6.63;58.54;102893.28;5009159;28;20178;-56
2022/02/12 09:29:42;;;;;;;20.73;9.48;;;;;;;7.08;56.84;102892.53;4998709;28;20052;-56
2022/02/12 09:32:07;;;;;;;20.45;9.32;;;;;;;7.12;56.41;102878.97;4996315;28;20049;-56
2022/02/12 09:34:33;;;;;;;26.25;9.68;;;;;;;7.30;55.46;102874.88;4984898;28;20103;-57
2022/02/12 09:36:59;;;;;;;26.02;9.93;;;;;;;7.32;55.89;102881.00;4991456;28;74595;-58
2022/02/12 09:39:24;;;;;;;24.63;9.65;;;;;;;7.37;54.81;102864.84;4974220;28;20414;-56
2022/02/12 09:41:50;;;;;;;22.77;9.93;;;;;;;7.53;55.00;102876.19;4967782;28;20050;-56
2022/02/12 09:44:15;;;;;;;24.02;9.60;;;;;;;7.56;55.33;102868.56;4976324;28;20596;-56
2022/02/12 09:46:58;;;;;;;28.05;9.73;;;;;;;7.68;54.46;102864.06;4966649;28;20046;-59
2022/02/12 09:49:24;;;;;;;23.42;9.60;;;;;;;7.71;54.20;102869.44;4943254;28;20407;-57
2022/02/12 09:51:51;;;;;;;25.83;9.68;;;;;;;7.84;53.65;102867.53;4985501;28;20080;-56
2022/02/12 09:54:16;;;;;;;23.00;9.10;;;;;;;7.68;54.64;102868.41;4964551;28;20050;-58
2022/02/12 09:56:41;;;;;;;31.65;9.52;;;;;;;7.77;54.49;102861.09;4969224;28;20077;-58
2022/02/12 09:59:09;;;;;;;25.73;9.80;;;;;;;7.97;52.81;102857.03;4969902;28;20050;-53
2022/02/12 10:01:38;;;;;;;24.55;10.00;;;;;;;8.09;54.06;102845.63;4958579;28;20570;-55
2022/02/12 10:04:03;;;;;;;26.20;9.75;;;;;;;8.11;53.30;102845.69;4966857;28;20492;-57
2022/02/12 10:06:43;;;;;;;22.70;9.30;;;;;;;8.22;52.84;102841.97;4974538;28;20083;-56
2022/02/12 10:09:09;;;;;;;26.73;9.43;;;;;;;8.24;52.44;102839.44;4975945;28;20053;-55
2022/02/12 10:11:40;;;;;;;25.48;9.40;;;;;;;8.12;53.08;102834.47;4962759;28;20596;-57
2022/02/12 10:14:14;;;;;;;22.30;8.88;;;;;;;8.37;52.50;102828.94;4967009;28;20108;-58
2022/02/12 10:16:57;;;;;;;19.67;8.43;;;;;;;8.20;51.78;102822.81;4968785;28;20057;-57
2022/02/12 10:19:36;;;;;;;20.83;7.97;;;;;;;8.11;52.15;102820.59;4965898;28;20137;-58
2022/02/12 10:22:05;;;;;;;17.90;8.02;;;;;;;8.18;51.72;102815.72;4978169;28;20482;-58
2022/02/12 10:24:54;;;;;;;23.08;8.50;;;;;;;8.23;52.11;102819.50;4964719;28;20319;-57
2022/02/12 10:27:25;;;;;;;23.02;8.15;;;;;;;8.26;52.18;102814.44;4960869;28;20088;-59
2022/02/12 10:29:52;;;;;;;17.25;7.68;;;;;;;8.46;51.89;102812.13;4967681;28;20499;-57
2022/02/12 10:32:20;;;;;;;20.55;7.78;;;;;;;8.53;52.01;102831.56;4969755;28;20085;-57
2022/02/12 10:34:46;;;;;;;21.67;7.43;;;;;;;8.52;51.74;102825.47;4964461;28;20076;-57
2022/02/12 10:37:19;;;;;;;20.45;8.45;;;;;;;8.44;51.39;102834.53;4962814;28;20496;-58
2022/02/12 10:40:03;;;;;;;16.90;7.85;;;;;;;8.47;51.06;102834.72;4958743;28;20516;-56
2022/02/12 10:42:31;;;;;;;18.23;8.38;;;;;;;8.21;51.20;102834.09;4954486;28;20053;-57
2022/02/12 10:44:56;;;;;;;16.73;7.65;;;;;;;8.27;50.99;102837.03;4957111;28;20147;-57
2022/02/12 10:47:23;;;;;;;17.73;7.18;;;;;;;8.17;51.06;102835.66;4947243;28;20509;-57
2022/02/12 10:49:50;;;;;;;18.55;7.53;;;;;;;8.47;51.24;102834.72;4947524;28;20141;-60
2022/02/12 10:52:16;;;;;;;19.90;7.38;;;;;;;8.54;51.41;102822.91;4960502;28;20050;-56
2022/02/12 10:54:43;;;;;;;14.80;7.10;;;;;;;8.56;51.47;102821.28;4954600;28;20401;-57
2022/02/12 10:57:09;;;;;;;15.73;7.28;;;;;;;8.45;51.44;102825.03;4959203;28;20087;-58
2022/02/12 10:59:38;;;;;;;22.10;7.68;;;;;;;8.51;51.35;102815.88;4956453;28;20129;-58
2022/02/12 11:02:11;;;;;;;22.77;8.23;;;;;;;8.58;50.97;102811.88;4955174;28;20219;-58
2022/02/12 11:04:39;;;;;;;22.70;7.47;;;;;;;8.41;51.44;102810.09;4959157;28;20038;-58
2022/02/12 11:07:06;;;;;;;15.90;7.18;;;;;;;8.35;51.67;102802.00;4952836;28;20065;-59
2022/02/12 11:09:31;;;;;;;16.15;7.78;;;;;;;8.30;51.88;102793.00;4951757;28;20081;-58
2022/02/12 11:12:05;;;;;;;18.20;7.78;;;;;;;8.50;51.15;102789.78;4949736;28;20170;-57
2022/02/12 11:14:36;;;;;;;18.25;7.18;;;;;;;8.54;50.61;102782.22;4956225;28;20061;-59
2022/02/12 11:17:08;;;;;;;17.17;7.47;;;;;;;8.65;51.26;102776.69;4953917;28;20107;-57
2022/02/12 11:19:34;;;;;;;21.08;7.75;;;;;;;8.67;51.56;102775.03;4951860;28;20410;-57
2022/02/12 11:22:01;;;;;;;16.73;7.68;;;;;;;8.64;51.61;102755.00;4955498;28;20053;-58
2022/02/12 11:24:43;;;;;;;15.55;7.25;;;;;;;8.66;51.47;102750.75;4943138;28;20434;-56
2022/02/12 11:27:31;;;;;;;19.15;7.22;;;;;;;8.80;50.60;102746.25;4957475;28;20565;-57
2022/02/12 11:30:12;;;;;;;18.10;7.43;;;;;;;8.96;51.04;102749.69;4952571;28;20038;-58
2022/02/12 11:32:42;;;;;;;16.48;6.93;;;;;;;8.95;50.60;102747.94;4949621;28;20137;-58
2022/02/12 11:35:10;;;;;;;17.88;6.70;;;;;;;9.00;50.22;102726.44;4958813;28;20371;-59
2022/02/12 11:37:45;;;;;;;19.13;5.70;;;;;;;8.93;49.78;102713.13;4949962;28;20038;-56
2022/02/12 11:40:13;;;;;;;;;;;;;;;8.96;48.67;102723.66;4973621;28;20046;-57
2022/02/12 11:42:41;;;;;;;12.65;4.38;;;;;;;9.12;47.91;102709.72;4955682;28;20488;-58
2022/02/12 11:45:30;;;;;;;9.95;3.90;;;;;;;8.95;47.41;102711.50;4956106;28;20153;-58
2022/02/12 11:48:27;;;;;;;12.55;3.58;;;;;;;8.95;46.17;102700.22;4951403;28;20081;-58
2022/02/12 11:51:06;;;;;;;11.50;3.30;;;;;;;9.13;45.82;102701.09;4947068;28;20039;-56
2022/02/12 11:53:51;;;;;;;7.18;3.25;;;;;;;9.22;46.46;102690.22;4955099;28;20045;-59
2022/02/12 11:56:19;;;;;;;8.23;3.50;;;;;;;9.13;46.30;102682.88;4953055;28;20069;-56
2022/02/12 11:58:47;;;;;;;10.98;3.75;;;;;;;9.29;45.56;102680.19;4953876;28;20046;-56
2022/02/12 12:01:22;;;;;;;8.07;3.47;;;;;;;9.39;45.38;102672.81;4950774;28;20376;-58
2022/02/12 12:04:16;;;;;;;9.55;3.38;;;;;;;9.30;45.72;102665.47;4949523;28;20053;-56
2022/02/12 12:07:03;;;;;;;10.18;3.67;;;;;;;9.32;45.76;102663.84;4953481;28;20080;-56
2022/02/12 12:09:31;;;;;;;12.48;3.70;;;;;;;9.53;45.51;102663.91;4956772;28;20140;-57
2022/02/12 12:12:15;;;;;;;11.48;3.70;;;;;;;9.37;45.71;102657.13;4946274;28;20506;-56
2022/02/12 12:14:41;;;;;;;10.35;3.83;;;;;;;9.38;45.17;102647.59;4955760;28;20048;-59
2022/02/12 12:17:07;;;;;;;11.82;3.80;;;;;;;9.58;44.01;102646.78;4938173;28;20050;-56
2022/02/12 12:19:41;;;;;;;14.57;3.88;;;;;;;9.64;43.99;102660.09;4958454;28;20100;-56
2022/02/12 12:22:10;;;;;;;12.23;3.90;;;;;;;9.60;42.86;102640.84;4943122;28;20636;-57
2022/02/12 12:24:36;;;;;;;12.05;4.07;;;;;;;9.50;43.87;102638.66;4952847;28;20413;-56
2022/02/12 12:27:03;;;;;;;11.55;4.10;;;;;;;9.71;44.30;102633.50;4955745;28;20050;-57
2022/02/12 12:32:21;;;;;;;12.70;4.30;;;;;;;9.74;44.22;102616.31;4952393;28;21191;-56
2022/02/12 12:34:55;;;;;;;11.25;4.65;;;;;;;9.78;45.34;102613.00;4963171;28;20054;-56
2022/02/12 12:37:23;;;;;;;12.50;4.70;;;;;;;9.72;44.50;102611.84;4952541;28;20617;-57
2022/02/12 12:39:50;;;;;;;14.23;4.40;;;;;;;9.67;44.13;102590.81;4955166;28;20050;-56
2022/02/12 12:42:23;;;;;;;14.07;4.90;;;;;;;9.75;45.30;102596.38;4953138;28;20394;-57
2022/02/12 12:45:01;;;;;;;11.93;4.75;;;;;;;9.73;44.97;102585.00;4948103;28;20509;-58
2022/02/12 12:47:28;;;;;;;15.40;4.82;;;;;;;9.91;45.23;102575.38;4952378;28;20054;-58
2022/02/12 12:49:55;;;;;;;10.32;4.30;;;;;;;9.74;44.13;102566.84;4951108;28;20659;-57
2022/02/12 12:52:23;;;;;;;12.18;5.15;;;;;;;9.82;44.83;102564.53;4956447;28;20050;-57
2022/02/12 12:54:54;;;;;;;12.82;4.55;;;;;;;9.88;44.90;102551.78;4944141;28;20126;-59
2022/02/12 12:57:27;;;;;;;14.90;4.95;;;;;;;9.73;45.27;102559.84;4950700;28;20061;-55
2022/02/12 12:59:55;;;;;;;8.23;4.30;;;;;;;9.94;44.41;102559.00;4955102;28;20050;-55
2022/02/12 13:02:21;;;;;;;13.15;4.25;;;;;;;10.02;44.09;102555.88;4950947;28;20050;-58
2022/02/12 13:04:57;;;;;;;9.52;4.05;;;;;;;10.03;43.62;102555.06;4945981;28;20070;-57
2022/02/12 13:07:26;;;;;;;10.55;4.28;;;;;;;9.97;43.13;102546.97;4956373;28;20051;-57
2022/02/12 13:09:54;;;;;;;14.35;4.45;;;;;;;10.09;42.87;102530.97;4954020;28;20043;-56
2022/02/12 13:12:29;;;;;;;15.05;4.13;;;;;;;9.99;43.40;102523.59;4955469;28;20232;-54
2022/02/12 13:14:55;;;;;;;;;;;;;;;10.11;43.77;102522.41;4950301;28;20504;-56
2022/02/12 13:17:22;;;;;;;9.20;3.90;;;;;;;9.87;42.94;102525.69;4946042;28;20391;-54
2022/02/12 13:19:49;;;;;;;9.02;3.83;;;;;;;10.18;41.95;102527.03;4958572;28;20141;-60
2022/02/12 13:22:14;;;;;;;9.95;3.78;;;;;;;10.01;41.63;102522.81;4956952;28;20046;-57
2022/02/12 13:24:40;;;;;;;11.95;4.20;;;;;;;10.25;41.98;102525.56;4956698;28;20053;-56
2022/02/12 13:27:09;;;;;;;12.20;4.40;;;;;;;10.31;41.31;102519.72;4951184;28;22326;-58
2022/02/12 13:29:35;;;;;;;10.18;3.80;;;;;;;10.25;41.23;102517.75;4937772;28;20046;-57
2022/02/12 13:32:05;;;;;;;8.30;3.53;;;;;;;10.30;40.06;102507.53;4956990;28;20053;-55
2022/02/12 13:34:31;;;;;;;12.50;3.92;;;;;;;10.01;41.03;102490.66;4955576;28;20070;-56
2022/02/12 13:36:58;;;;;;;9.27;3.85;;;;;;;10.15;41.01;102499.94;4948377;28;20042;-56
2022/02/12 13:39:24;;;;;;;11.85;3.95;;;;;;;10.25;40.89;102488.19;4961472;28;20058;-56
2022/02/12 13:41:59;;;;;;;9.65;3.85;;;;;;;10.15;41.64;102494.72;4952941;28;20064;-56
2022/02/12 13:44:29;;;;;;;8.07;4.10;;;;;;;10.17;42.36;102482.69;4954772;28;20042;-56
2022/02/12 13:46:57;;;;;;;11.70;4.10;;;;;;;10.27;41.53;102478.72;4942585;28;20038;-56
2022/02/12 13:49:25;;;;;;;10.98;4.00;;;;;;;10.45;40.46;102463.81;4953561;28;20062;-57
2022/02/12 13:51:52;;;;;;;11.25;3.90;;;;;;;10.40;39.95;102465.34;4957611;28;20042;-54
2022/02/12 13:54:17;;;;;;;10.05;3.80;;;;;;;10.34;39.62;102460.78;4946957;28;20042;-56
2022/02/12 13:56:46;;;;;;;8.20;3.50;;;;;;;10.48;39.36;102456.13;4951868;28;20049;-55
2022/02/12 13:59:11;;;;;;;9.25;3.80;;;;;;;10.45;39.78;102456.88;4943702;28;20096;-56
2022/02/12 14:01:36;;;;;;;9.73;3.83;;;;;;;10.56;39.59;102452.06;4956574;28;20510;-56
2022/02/12 14:04:02;;;;;;;11.52;3.63;;;;;;;10.69;39.18;102443.88;4958058;28;20491;-56
2022/02/12 14:06:27;;;;;;;10.07;4.05;;;;;;;10.66;40.00;102442.91;4953404;28;20038;-57
2022/02/12 14:08:54;;;;;;;11.13;3.80;;;;;;;10.72;39.98;102445.75;4949355;28;20042;-57
2022/02/12 14:11:20;;;;;;;8.10;3.70;;;;;;;10.51;39.20;102438.88;4953442;28;20042;-56
2022/02/12 14:13:45;;;;;;;8.90;3.80;;;;;;;10.41;39.72;102433.25;4964324;28;20049;-56
2022/02/12 14:16:10;;;;;;;10.05;3.72;;;;;;;10.62;39.40;102423.63;4965198;28;20057;-57
2022/02/12 14:18:36;;;;;;;8.48;3.40;;;;;;;10.67;39.11;102431.66;4959384;28;20884;-55
2022/02/12 14:21:03;;;;;;;9.70;3.88;;;;;;;10.73;38.71;102424.03;4962140;28;20041;-53
2022/02/12 14:23:28;;;;;;;10.70;3.78;;;;;;;10.68;39.55;102420.34;4959327;28;20401;-58
2022/02/12 14:25:53;;;;;;;8.00;3.50;;;;;;;10.66;38.40;102422.94;4955968;28;20038;-56
2022/02/12 14:28:19;;;;;;;10.75;3.80;;;;;;;10.45;39.17;102427.31;4954368;28;20142;-56
2022/02/12 14:30:45;;;;;;;9.20;3.47;;;;;;;10.50;38.56;102416.22;4957592;28;20033;-57
2022/02/12 14:33:11;;;;;;;12.27;3.80;;;;;;;10.38;38.55;102422.69;4942222;28;20944;-58
2022/02/12 14:35:37;;;;;;;8.20;3.42;;;;;;;10.33;38.90;102413.81;4948545;28;20483;-57
2022/02/12 14:38:03;;;;;;;13.68;3.83;;;;;;;10.29;38.97;102401.50;4953952;28;20434;-57
2022/02/12 14:40:29;;;;;;;13.88;4.15;;;;;;;10.24;38.99;102400.44;4959854;28;20053;-57
2022/02/12 14:42:55;;;;;;;12.23;4.05;;;;;;;10.16;38.81;102398.41;4954179;28;20053;-57
2022/02/12 14:45:21;;;;;;;9.75;4.00;;;;;;;9.98;39.67;102397.66;4954123;28;20529;-55
2022/02/12 14:47:46;;;;;;;10.77;4.40;;;;;;;9.99;39.18;102388.13;4954893;28;20154;-57
2022/02/12 14:50:12;;;;;;;10.80;4.15;;;;;;;9.91;40.60;102390.41;4953454;28;20038;-56
2022/02/12 14:52:38;;;;;;;15.05;4.47;;;;;;;10.00;39.42;102393.34;4947224;28;20152;-58
2022/02/12 14:55:04;;;;;;;11.70;4.72;;;;;;;9.97;39.51;102385.44;4947645;28;20137;-57
2022/02/12 14:57:31;;;;;;;11.55;4.30;;;;;;;10.01;39.49;102376.91;4959348;28;20149;-54
2022/02/12 14:59:57;;;;;;;12.23;4.60;;;;;;;10.10;40.80;102377.28;4956747;28;20599;-54
2022/02/12 15:02:22;;;;;;;11.02;4.80;;;;;;;10.03;40.78;102372.66;4963364;28;20050;-53
2022/02/12 15:04:49;;;;;;;13.32;4.90;;;;;;;9.84;41.11;102375.34;4951436;28;20713;-56
2022/02/12 15:07:14;;;;;;;14.30;4.95;;;;;;;9.90;40.76;102367.78;4939949;28;20457;-57
2022/02/12 15:09:40;;;;;;;14.82;5.10;;;;;;;9.85;41.19;102363.22;4953990;28;20042;-58
2022/02/12 15:12:05;;;;;;;16.33;6.53;;;;;;;9.68;41.89;102357.34;4958211;28;20104;-56
2022/02/12 15:14:31;;;;;;;30.17;10.38;;;;;;;9.65;42.28;102354.59;4962989;28;20034;-56
2022/02/12 15:16:56;;;;;;;32.95;13.20;;;;;;;9.61;42.12;102344.91;4946409;28;20189;-58
2022/02/12 15:19:22;;;;;;;13.15;6.22;;;;;;;9.63;42.47;102344.16;4956274;28;20536;-57
2022/02/12 15:21:47;;;;;;;12.55;5.38;;;;;;;9.47;43.26;102333.91;4950888;28;20118;-57
2022/02/12 15:24:13;;;;;;;10.55;5.60;;;;;;;9.43;43.50;102341.53;4952910;28;20567;-58
2022/02/12 15:26:39;;;;;;;14.50;5.20;;;;;;;9.33;43.80;102340.28;4960354;28;20219;-58
2022/02/12 15:29:05;;;;;;;14.45;6.05;;;;;;;9.42;43.54;102340.66;4952256;28;20094;-58
2022/02/12 15:31:30;;;;;;;15.32;6.15;;;;;;;9.36;44.51;102337.78;4957505;28;20236;-58
2022/02/12 15:33:58;;;;;;;13.98;5.85;;;;;;;9.41;43.91;102335.38;4951479;28;20053;-56
2022/02/12 15:36:23;;;;;;;15.15;6.03;;;;;;;9.18;44.22;102335.31;4959003;28;20148;-57
2022/02/12 15:38:49;;;;;;;18.90;6.43;;;;;;;9.39;44.16;102330.13;4946191;28;20612;-57
2022/02/12 15:41:14;;;;;;;13.95;5.43;;;;;;;9.43;43.78;102332.03;4957155;28;20921;-57
2022/02/12 15:43:40;;;;;;;13.75;5.60;;;;;;;9.33;43.67;102330.72;4956400;28;20146;-56
2022/02/12 15:46:06;;;;;;;15.50;5.53;;;;;;;9.29;43.89;102326.25;4956022;28;20320;-57
2022/02/12 15:48:32;;;;;;;17.25;5.80;;;;;;;9.21;44.30;102329.38;4960976;28;20065;-57
2022/02/12 15:50:57;;;;;;;14.00;5.53;;;;;;;9.14;44.84;102332.53;4927985;28;20047;-58
2022/02/12 15:53:23;;;;;;;12.38;5.30;;;;;;;8.99;45.36;102326.66;4952803;28;20499;-57
2022/02/12 15:55:49;;;;;;;12.45;5.43;;;;;;;8.95;45.33;102325.66;4944149;28;20307;-54
2022/02/12 15:58:15;;;;;;;13.32;4.97;;;;;;;8.88;45.40;102308.88;4942437;28;20042;-56
2022/02/12 16:00:42;;;;;;;12.98;5.32;;;;;;;8.84;45.70;102306.97;4961408;28;20243;-56
2022/02/12 16:03:08;;;;;;;13.05;5.50;;;;;;;8.83;45.42;102294.81;4948672;28;22204;-56
2022/02/12 16:05:33;;;;;;;17.98;5.57;;;;;;;8.71;45.47;102291.69;4956249;28;20125;-56
2022/02/12 16:08:00;;;;;;;14.82;5.35;;;;;;;8.70;45.79;102291.59;4950613;28;20054;-56
2022/02/12 16:10:27;;;;;;;12.90;5.30;;;;;;;8.62;46.08;102291.25;4948956;28;20054;-51
2022/02/12 16:12:54;;;;;;;15.63;5.70;;;;;;;8.62;46.09;102286.06;4949053;28;20042;-54
2022/02/12 16:15:21;;;;;;;16.15;5.97;;;;;;;8.60;46.16;102285.09;4959267;28;20070;-56
2022/02/12 16:17:47;;;;;;;14.68;6.03;;;;;;;8.51;46.67;102282.09;4953001;28;20038;-55
2022/02/12 16:20:13;;;;;;;17.88;6.13;;;;;;;8.57;46.52;102271.09;4954354;28;20037;-55
2022/02/12 16:22:38;;;;;;;16.13;5.95;;;;;;;8.50;46.92;102276.03;4955471;28;20054;-56
2022/02/12 16:25:04;;;;;;;16.50;5.90;;;;;;;8.51;46.72;102272.59;4950274;28;20050;-57
2022/02/12 16:27:30;;;;;;;12.68;5.43;;;;;;;8.53;46.76;102264.88;4958609;28;20053;-56
2022/02/12 16:29:57;;;;;;;15.80;5.75;;;;;;;8.48;47.21;102263.75;4964487;28;20039;-56
2022/02/12 16:32:22;;;;;;;17.92;6.50;;;;;;;8.51;46.99;102263.91;4956585;28;20137;-55
2022/02/12 16:34:57;;;;;;;14.02;5.85;;;;;;;8.48;47.11;102264.66;4950523;28;20038;-55
2022/02/12 16:37:23;;;;;;;15.70;6.22;;;;;;;8.34;47.72;102257.97;4955658;28;20088;-57
2022/02/12 16:39:48;;;;;;;17.95;6.20;;;;;;;8.44;47.75;102254.06;4957619;28;20564;-57
2022/02/12 16:42:13;;;;;;;17.30;6.47;;;;;;;8.41;47.34;102257.44;4958644;28;20050;-56
2022/02/12 16:44:39;;;;;;;13.93;6.40;;;;;;;8.44;47.22;102259.25;4950621;28;20038;-57
2022/02/12 16:47:06;;;;;;;16.73;6.40;;;;;;;8.36;47.94;102253.72;4946217;28;20049;-59
2022/02/12 16:49:32;;;;;;;16.02;6.03;;;;;;;8.34;48.09;102259.69;4951884;28;20055;-57
2022/02/12 16:51:58;;;;;;;14.80;6.43;;;;;;;8.24;48.50;102252.25;4955332;28;20112;-56
2022/02/12 16:54:23;;;;;;;18.35;6.70;;;;;;;8.34;47.98;102252.78;4940522;28;20038;-57
2022/02/12 16:56:49;;;;;;;16.70;7.15;;;;;;;8.25;48.57;102247.13;4948836;28;20055;-56
2022/02/12 16:59:15;;;;;;;20.02;7.25;;;;;;;8.17;48.68;102240.72;4958918;28;20526;-58
2022/02/12 17:01:42;;;;;;;17.92;6.88;;;;;;;8.20;48.71;102240.84;4951410;28;20197;-56
2022/02/12 17:04:07;;;;;;;19.05;6.25;;;;;;;8.13;49.11;102239.69;4956376;28;20042;-57
2022/02/12 17:06:33;;;;;;;17.70;6.78;;;;;;;8.09;48.47;102232.59;4957114;28;20170;-57
2022/02/12 17:08:58;;;;;;;16.23;6.28;;;;;;;8.08;48.73;102227.31;4943527;28;20480;-56
2022/02/12 17:11:27;;;;;;;19.17;6.63;;;;;;;8.04;48.64;102225.41;4960597;28;20065;-58
2022/02/12 17:13:53;;;;;;;14.55;6.25;;;;;;;8.04;48.21;102217.63;4935420;28;20844;-57
2022/02/12 17:16:18;;;;;;;17.92;6.35;;;;;;;8.14;47.88;102217.19;4955389;28;20206;-57
2022/02/12 17:18:46;;;;;;;17.77;6.95;;;;;;;8.08;48.05;102222.13;4956728;28;20038;-58
2022/02/12 17:21:14;;;;;;;14.63;6.30;;;;;;;8.01;47.71;102214.88;4953977;28;20069;-56
2022/02/12 17:23:39;;;;;;;19.70;5.90;;;;;;;7.98;47.33;102217.34;4954696;28;20546;-58
2022/02/12 17:26:05;;;;;;;12.90;5.60;;;;;;;7.93;47.69;102217.09;4951433;28;20555;-57
2022/02/12 17:28:30;;;;;;;13.90;6.20;;;;;;;8.01;47.26;102220.06;4952369;28;20097;-56
2022/02/12 17:30:56;;;;;;;14.93;5.60;;;;;;;7.97;47.31;102220.75;4947016;28;20474;-57
2022/02/12 17:33:22;;;;;;;13.35;5.72;;;;;;;7.91;46.45;102217.88;4954809;28;20471;-56
2022/02/12 17:35:48;;;;;;;15.82;5.72;;;;;;;8.02;46.81;102219.25;4954860;28;20393;-55
2022/02/12 17:38:13;;;;;;;16.92;6.00;;;;;;;7.86;47.06;102230.66;4956456;28;20038;-56
2022/02/12 17:40:38;;;;;;;13.32;5.65;;;;;;;7.79;47.24;102226.00;4939120;28;20030;-52
2022/02/12 17:43:04;;;;;;;14.80;5.50;;;;;;;7.74;47.59;102228.34;4937236;28;20695;-54
2022/02/12 17:45:29;;;;;;;21.63;5.15;;;;;;;7.70;47.48;102223.84;4958409;28;20034;-54
2022/02/12 17:47:56;;;;;;;14.75;5.45;;;;;;;7.75;47.21;102222.34;4955442;28;20437;-56
2022/02/12 17:50:22;;;;;;;14.38;5.68;;;;;;;7.76;47.58;102218.06;4941327;28;20485;-55
2022/02/12 17:52:48;;;;;;;13.27;5.95;;;;;;;7.69;47.63;102216.00;4951086;28;20462;-57
2022/02/12 17:55:14;;;;;;;13.18;5.38;;;;;;;7.63;47.64;102207.91;4959915;28;20411;-56
2022/02/12 17:57:39;;;;;;;12.82;5.70;;;;;;;7.62;47.77;102204.44;4956493;28;20560;-57
2022/02/12 18:00:06;;;;;;;14.95;5.15;;;;;;;7.65;48.00;102201.09;4964675;28;20409;-56
2022/02/12 18:02:31;;;;;;;13.32;5.22;;;;;;;7.68;47.67;102194.34;4957024;28;20038;-56
2022/02/12 18:04:57;;;;;;;13.40;5.30;;;;;;;7.59;47.41;102188.72;4952808;28;20065;-58
2022/02/12 18:07:23;;;;;;;15.90;5.75;;;;;;;7.67;48.28;102189.09;4957759;28;20054;-58
2022/02/12 18:09:49;;;;;;;12.90;5.35;;;;;;;7.74;47.58;102193.75;4957947;28;20482;-57
2022/02/12 18:12:16;;;;;;;15.73;5.65;;;;;;;7.70;47.64;102190.09;4957320;28;20049;-57
2022/02/12 18:14:44;;;;;;;15.77;5.95;;;;;;;7.70;47.55;102182.31;4956910;28;20046;-56
2022/02/12 18:17:11;;;;;;;16.77;5.60;;;;;;;7.70;47.46;102186.63;4954470;28;20034;-57
2022/02/12 18:19:36;;;;;;;14.32;5.65;;;;;;;7.68;47.62;102175.31;4956119;28;20050;-57
2022/02/12 18:22:02;;;;;;;13.88;5.68;;;;;;;7.65;47.86;102165.66;4960625;28;20083;-55
2022/02/12 18:24:30;;;;;;;17.58;5.95;;;;;;;7.62;48.20;102159.44;4958747;28;20068;-57
2022/02/12 18:26:56;;;;;;;11.75;5.32;;;;;;;7.69;47.83;102164.97;4950483;28;20113;-56
2022/02/12 18:29:23;;;;;;;15.15;5.70;;;;;;;7.60;47.96;102154.19;4960253;28;20541;-57
2022/02/12 18:31:49;;;;;;;13.77;5.63;;;;;;;7.67;48.33;102150.16;4957590;28;20176;-56
2022/02/12 18:34:15;;;;;;;16.00;6.13;;;;;;;7.69;47.86;102144.19;4955734;28;20035;-57
2022/02/12 18:36:40;;;;;;;14.02;5.60;;;;;;;7.65;48.04;102144.00;4950565;28;20078;-58
2022/02/12 18:39:07;;;;;;;17.17;6.20;;;;;;;7.61;48.17;102136.91;4958164;28;20063;-57
2022/02/12 18:41:32;;;;;;;13.73;5.95;;;;;;;7.54;48.34;102138.34;4960582;28;20035;-58
2022/02/12 18:44:02;;;;;;;14.90;6.25;;;;;;;7.43;48.59;102134.38;4950756;28;20043;-56
2022/02/12 18:46:30;;;;;;;17.83;6.35;;;;;;;7.44;48.94;102130.91;4954152;28;20046;-57
2022/02/12 18:48:56;;;;;;;16.92;6.45;;;;;;;7.40;48.58;102125.53;4949673;28;20505;-55
2022/02/12 18:51:26;;;;;;;12.98;5.88;;;;;;;7.21;49.38;102116.91;4949068;28;20081;-56
2022/02/12 18:53:51;;;;;;;14.30;7.07;;;;;;;7.10;49.46;102112.91;4959372;28;20490;-56
2022/02/12 18:56:22;;;;;;;16.27;6.78;;;;;;;7.09;49.40;102100.75;4961898;28;20438;-57
2022/02/12 18:58:47;;;;;;;15.27;6.80;;;;;;;7.09;49.76;102103.34;4945364;28;20050;-54
2022/02/12 19:01:12;;;;;;;16.45;7.22;;;;;;;7.12;49.56;102105.22;4954081;28;20042;-54
2022/02/12 19:03:38;;;;;;;17.73;6.80;;;;;;;7.18;49.16;102097.72;4963661;28;20730;-55
2022/02/12 19:06:04;;;;;;;16.33;6.40;;;;;;;7.08;49.51;102093.78;4944373;28;20054;-51
2022/02/12 19:08:30;;;;;;;15.27;6.90;;;;;;;7.10;49.22;102101.66;4960685;28;20049;-54
2022/02/12 19:10:55;;;;;;;23.95;6.78;;;;;;;7.08;49.19;102104.16;4949942;28;20042;-58
2022/02/12 19:13:21;;;;;;;13.60;6.40;;;;;;;7.10;48.96;102096.47;4959997;28;20523;-56
2022/02/12 19:15:47;;;;;;;17.90;6.70;;;;;;;6.99;49.56;102084.72;4963508;28;20054;-57
2022/02/12 19:18:12;;;;;;;18.20;6.55;;;;;;;7.06;49.37;102084.19;4957613;28;20327;-58
2022/02/12 19:20:38;;;;;;;13.40;6.25;;;;;;;7.07;49.30;102086.88;4958593;28;20375;-59
2022/02/12 19:23:03;;;;;;;15.40;6.30;;;;;;;7.12;49.15;102077.59;4953686;28;20525;-58
2022/02/12 19:25:32;;;;;;;11.32;5.70;;;;;;;7.14;49.17;102075.03;4958141;28;20070;-56
2022/02/12 19:27:58;;;;;;;15.10;6.10;;;;;;;7.14;48.99;102072.44;4954514;28;20042;-57
2022/02/12 19:30:28;;;;;;;13.35;6.22;;;;;;;7.15;48.82;102072.53;4961333;28;20043;-57
2022/02/12 19:32:53;;;;;;;16.00;6.15;;;;;;;7.12;48.72;102068.91;4941153;28;20043;-61
2022/02/12 19:35:19;;;;;;;12.35;5.60;;;;;;;7.10;48.79;102066.25;4954748;28;20451;-56
2022/02/12 19:37:50;;;;;;;15.05;5.90;;;;;;;7.18;48.48;102057.13;4954285;28;20049;-57
2022/02/12 19:40:16;;;;;;;15.15;6.38;;;;;;;7.08;48.27;102059.19;4954052;28;20356;-57
2022/02/12 19:42:42;;;;;;;12.70;5.90;;;;;;;7.09;48.66;102045.41;4956462;28;20368;-58
2022/02/12 19:45:08;;;;;;;12.50;5.95;;;;;;;7.09;48.70;102048.00;4936466;28;24700;-56
2022/02/12 19:47:34;;;;;;;15.18;5.80;;;;;;;7.08;48.76;102052.31;4953955;28;20058;-56
2022/02/12 19:49:59;;;;;;;12.73;5.85;;;;;;;6.97;48.75;102047.44;4959567;28;20046;-57
2022/02/12 19:52:24;;;;;;;13.63;5.97;;;;;;;7.03;48.67;102043.44;4948154;28;20806;-56
2022/02/12 19:54:50;;;;;;;11.25;5.68;;;;;;;7.08;48.45;102044.53;4943601;28;20044;-56
2022/02/12 19:57:15;;;;;;;16.73;5.72;;;;;;;7.05;48.34;102046.09;4958987;28;20115;-57
2022/02/12 19:59:41;;;;;;;16.95;6.05;;;;;;;7.08;48.40;102046.22;4936405;28;20349;-57
2022/02/12 20:02:08;;;;;;;15.10;6.40;;;;;;;7.02;48.28;102036.47;4958468;28;20050;-57
2022/02/12 20:04:34;;;;;;;13.90;6.05;;;;;;;7.08;48.17;102036.75;4956561;28;20332;-56
2022/02/12 20:07:00;;;;;;;13.75;6.10;;;;;;;7.03;48.10;102033.06;4948858;28;20134;-56
2022/02/12 20:09:25;;;;;;;15.80;6.13;;;;;;;7.09;47.78;102040.22;4957714;28;20367;-55
2022/02/12 20:11:51;;;;;;;13.35;5.95;;;;;;;7.03;48.02;102024.41;4959291;28;20046;-56
2022/02/12 20:14:17;;;;;;;16.00;6.22;;;;;;;7.10;48.06;102035.13;4959425;28;20042;-55
2022/02/12 20:16:44;;;;;;;11.48;6.10;;;;;;;7.03;48.41;102024.41;4953535;28;20116;-55
2022/02/12 20:19:11;;;;;;;14.75;6.00;;;;;;;7.01;48.80;102020.88;4951608;28;20050;-56
2022/02/12 20:21:37;;;;;;;13.35;6.30;;;;;;;6.98;48.52;102020.72;4962520;28;20050;-55
2022/02/12 20:24:02;;;;;;;19.83;8.82;;;;;;;6.88;48.97;102028.09;4955122;28;20074;-57
2022/02/12 20:26:27;;;;;;;14.07;6.45;;;;;;;6.90;49.03;102028.13;4954023;28;20533;-55
2022/02/12 20:28:53;;;;;;;14.93;6.95;;;;;;;6.83;49.51;102023.50;4943821;28;20050;-57
2022/02/12 20:31:18;;;;;;;19.50;8.85;;;;;;;6.86;49.55;102023.63;4936427;28;20043;-55
2022/02/12 20:33:43;;;;;;;17.63;9.00;;;;;;;6.82;49.33;102019.13;4947742;28;20363;-56
2022/02/12 20:36:09;;;;;;;15.73;7.40;;;;;;;6.76;49.66;102027.50;4947026;28;20046;-57
2022/02/12 20:38:36;;;;;;;20.83;9.48;;;;;;;6.72;49.83;102016.91;4949022;28;20046;-58
2022/02/12 20:41:02;;;;;;;17.05;7.25;;;;;;;6.68;49.96;102007.22;4951882;28;20505;-56
2022/02/12 20:43:27;;;;;;;16.08;7.07;;;;;;;6.66;49.81;102003.66;4959974;28;20042;-58
2022/02/12 20:45:53;;;;;;;20.35;9.80;;;;;;;6.71;49.90;102007.38;4956180;28;20088;-57
2022/02/12 20:48:19;;;;;;;16.25;6.85;;;;;;;6.65;50.15;101988.94;4949886;28;20042;-57
2022/02/12 20:50:45;;;;;;;18.33;8.55;;;;;;;6.61;50.27;101981.81;4953154;28;20121;-55
2022/02/12 20:53:11;;;;;;;17.88;7.10;;;;;;;6.57;50.22;101973.03;4946198;28;20133;-53
2022/02/12 20:55:36;;;;;;;17.83;7.07;;;;;;;6.66;50.28;101981.22;4955915;28;20088;-53